Time;durP1;ratioP1;P1;durP2;ratioP2;P2;SDS_P1;SDS_P2;PMS_P1;PMS_P2;Temp;Humidity;BMP_temperature;BMP_pressure;BME280_temperature;BME280_humidity;BME280_pressure;Samples;Min_cycle;Max_cycle;Signal;HPM_P1;HPM_P2
2021/06/28 00:02:10;;;;;;;12.40;11.25;;;;;;;20.28;54.96;99013.34;2282546;78;20907;-81
2021/06/28 00:05:11;;;;;;;14.43;11.85;;;;;;;20.17;54.31;99017.16;2283397;78;20942;-80
2021/06/28 00:08:12;;;;;;;14.03;11.80;;;;;;;19.12;54.27;99022.06;2274654;78;21418;-81
2021/06/28 00:11:13;;;;;;;14.38;11.68;;;;;;;18.91;57.32;99029.93;2283166;78;20934;-82
2021/06/28 00:14:14;;;;;;;13.30;11.25;;;;;;;19.29;57.60;99019.95;2282787;78;20915;-81
2021/06/28 00:17:15;;;;;;;15.45;12.05;;;;;;;19.64;56.78;99017.46;2283905;78;20903;-80
2021/06/28 00:20:16;;;;;;;12.65;11.35;;;;;;;19.70;56.43;99017.33;2283503;78;20962;-81
2021/06/28 00:23:17;;;;;;;14.75;11.10;;;;;;;19.87;56.36;99010.77;2282219;78;21269;-81
2021/06/28 00:26:18;;;;;;;13.53;12.13;;;;;;;19.95;55.96;99015.48;2281924;78;20938;-80
2021/06/28 00:29:18;;;;;;;12.23;11.03;;;;;;;20.01;55.94;99010.91;2281665;78;20934;-80
2021/06/28 00:32:19;;;;;;;11.88;10.63;;;;;;;20.11;55.53;99013.34;2282031;78;20946;-80
2021/06/28 00:35:21;;;;;;;12.45;10.80;;;;;;;19.71;53.31;99018.20;2282639;78;20915;-82
2021/06/28 00:38:22;;;;;;;13.05;11.78;;;;;;;18.41;54.00;99030.34;2282548;78;20990;-81
2021/06/28 00:41:23;;;;;;;12.73;11.03;;;;;;;17.44;55.67;99026.88;2282772;78;20914;-81
2021/06/28 00:44:24;;;;;;;26.82;12.93;;;;;;;16.64;57.17;99031.68;2282178;78;20938;-82
2021/06/28 00:47:25;;;;;;;11.88;10.78;;;;;;;16.03;58.89;99029.53;2282586;78;20962;-82
2021/06/28 00:50:25;;;;;;;16.40;12.25;;;;;;;15.58;59.61;99036.34;2282528;78;21287;-81
2021/06/28 00:53:27;;;;;;;17.07;11.68;;;;;;;15.18;62.71;99035.62;2282477;78;21314;-81
2021/06/28 00:56:27;;;;;;;19.17;12.33;;;;;;;14.90;62.30;99036.58;2282751;78;21259;-81
2021/06/28 00:59:28;;;;;;;18.42;12.60;;;;;;;14.56;63.27;99040.55;2282465;78;20863;-81
2021/06/28 01:02:29;;;;;;;13.70;12.30;;;;;;;14.19;64.95;99042.72;2282469;78;20911;-80
2021/06/28 01:05:31;;;;;;;16.52;12.10;;;;;;;14.19;64.95;99042.72;2282564;78;21006;-81
2021/06/28 01:08:32;;;;;;;15.25;12.65;;;;;;;14.03;65.58;99041.83;2282462;78;21025;-81
2021/06/28 01:11:33;;;;;;;12.93;11.65;;;;;;;13.96;66.08;99048.82;2282907;78;21002;-81
2021/06/28 01:14:34;;;;;;;12.93;11.60;;;;;;;13.72;66.60;99042.19;2282522;78;21259;-81
2021/06/28 01:17:35;;;;;;;15.65;12.37;;;;;;;13.72;66.60;99042.19;2282344;78;21298;-81
2021/06/28 01:20:36;;;;;;;15.53;12.18;;;;;;;13.66;66.98;99046.10;2282441;78;21282;-80
2021/06/28 01:23:37;;;;;;;16.07;12.50;;;;;;;13.56;67.37;99046.95;2282307;78;20971;-80
2021/06/28 01:26:38;;;;;;;15.23;11.93;;;;;;;13.50;67.88;99041.25;2282417;78;21275;-82
2021/06/28 01:29:39;;;;;;;15.08;12.05;;;;;;;13.49;68.22;99036.00;2251415;77;21351;-80
2021/06/28 01:32:41;;;;;;;13.45;12.18;;;;;;;13.40;67.85;99035.53;2249893;79;20861;-80
2021/06/28 01:35:42;;;;;;;16.57;11.80;;;;;;;13.38;68.32;99035.53;2250028;79;20956;-80
2021/06/28 01:38:43;;;;;;;13.68;11.88;;;;;;;13.33;68.58;99034.63;2250009;78;20987;-80
2021/06/28 01:41:44;;;;;;;22.60;13.00;;;;;;;13.26;68.57;99043.78;2249971;79;20873;-80
2021/06/28 01:44:45;;;;;;;13.60;12.13;;;;;;;13.17;68.91;99034.13;2249958;79;20897;-81
2021/06/28 01:47:46;;;;;;;14.07;11.57;;;;;;;13.08;69.04;99032.31;2250012;79;20956;-80
2021/06/28 01:50:47;;;;;;;15.10;12.18;;;;;;;13.02;69.33;99030.97;2249891;79;20908;-80
2021/06/28 01:53:48;;;;;;;14.60;11.93;;;;;;;12.98;69.69;99028.30;2249883;79;21363;-79
2021/06/28 01:56:49;;;;;;;17.60;11.28;;;;;;;12.94;69.67;99026.09;2249972;79;20945;-80
2021/06/28 01:59:50;;;;;;;12.65;10.72;;;;;;;12.85;69.51;99018.62;2249848;79;21319;-80
2021/06/28 02:02:51;;;;;;;16.95;12.13;;;;;;;12.80;69.87;99022.95;2249678;79;20979;-77
2021/06/28 02:05:52;;;;;;;16.97;12.10;;;;;;;12.76;70.14;99028.17;2249618;79;20975;-81
2021/06/28 02:08:53;;;;;;;14.05;11.60;;;;;;;12.74;70.44;99024.67;2249597;79;21346;-80
2021/06/28 02:11:54;;;;;;;16.35;12.25;;;;;;;12.71;70.22;99022.03;2249806;79;20924;-79
2021/06/28 02:14:54;;;;;;;12.93;11.53;;;;;;;12.70;70.33;99027.27;2249792;79;20896;-80
2021/06/28 02:17:55;;;;;;;91.95;16.52;;;;;;;12.65;70.40;99031.59;2249832;79;21300;-79
2021/06/28 02:20:56;;;;;;;23.12;12.35;;;;;;;12.64;70.84;99032.03;2249942;79;20865;-80
2021/06/28 02:23:57;;;;;;;16.82;11.53;;;;;;;12.67;71.01;99040.34;2249791;79;21304;-79
2021/06/28 02:27:00;;;;;;;44.93;13.68;;;;;;;12.67;70.77;99035.98;2249833;79;20908;-78
2021/06/28 02:30:01;;;;;;;18.95;12.20;;;;;;;12.66;70.76;99039.89;2291020;77;21348;-80
2021/06/28 02:33:01;;;;;;;16.00;11.30;;;;;;;12.67;71.08;99041.65;2291806;78;20961;-79
2021/06/28 02:36:03;;;;;;;14.98;11.45;;;;;;;12.62;70.68;99032.45;2291852;78;21304;-80
2021/06/28 02:39:03;;;;;;;15.98;12.28;;;;;;;12.60;70.78;99028.07;2291560;78;21027;-80
2021/06/28 02:42:05;;;;;;;15.25;11.50;;;;;;;12.58;70.65;99038.53;2291773;78;21276;-81
2021/06/28 02:45:05;;;;;;;17.73;12.07;;;;;;;12.53;70.57;99033.70;2291718;78;20921;-79
2021/06/28 02:48:06;;;;;;;17.25;12.28;;;;;;;12.57;70.74;99026.74;2292056;78;20917;-79
2021/06/28 02:51:07;;;;;;;13.35;11.90;;;;;;;12.57;70.72;99019.77;2292062;78;20936;-80
2021/06/28 02:54:08;;;;;;;13.48;11.40;;;;;;;12.59;70.76;99030.25;2292246;78;20888;-80
2021/06/28 02:57:09;;;;;;;12.80;11.50;;;;;;;12.60;70.85;99021.52;2292199;78;20901;-81
2021/06/28 03:00:10;;;;;;;26.65;12.82;;;;;;;12.59;70.77;99020.64;2292061;78;20931;-81
2021/06/28 03:03:11;;;;;;;15.53;12.05;;;;;;;12.60;71.02;99019.78;2291988;78;20877;-81
2021/06/28 03:06:13;;;;;;;12.63;11.35;;;;;;;12.67;70.99;99015.45;2292181;78;20944;-81
2021/06/28 03:09:14;;;;;;;76.90;15.40;;;;;;;12.70;70.94;99019.41;2292019;78;21023;-81
2021/06/28 03:12:15;;;;;;;13.20;11.22;;;;;;;12.69;71.20;99022.45;2291810;78;21310;-81
2021/06/28 03:15:16;;;;;;;13.00;11.00;;;;;;;12.70;71.04;99021.59;2292150;78;21237;-81
2021/06/28 03:18:17;;;;;;;14.10;10.80;;;;;;;12.70;70.91;99019.41;2292354;78;20889;-81
2021/06/28 03:21:17;;;;;;;12.18;10.32;;;;;;;12.71;70.93;99015.48;2292189;78;20957;-81
2021/06/28 03:24:18;;;;;;;64.90;15.18;;;;;;;12.77;71.08;99014.64;2292263;78;20957;-81
2021/06/28 03:27:19;;;;;;;13.75;10.60;;;;;;;12.85;71.27;99012.95;2292214;78;20904;-79
2021/06/28 03:30:20;;;;;;;11.60;9.70;;;;;;;12.98;71.03;99021.31;2306618;77;20904;-80
2021/06/28 03:33:21;;;;;;;12.23;10.08;;;;;;;13.03;70.92;99023.98;2306483;77;20873;-81
2021/06/28 03:36:22;;;;;;;11.83;10.65;;;;;;;13.14;71.08;99021.41;2306555;77;20873;-80
2021/06/28 03:39:23;;;;;;;13.93;10.30;;;;;;;13.20;70.85;99021.04;2306038;77;21022;-79
2021/06/28 03:42:24;;;;;;;10.98;9.85;;;;;;;13.24;70.83;99028.05;2306200;77;20983;-82
2021/06/28 03:45:25;;;;;;;12.03;10.82;;;;;;;13.32;71.11;99029.38;2306268;77;20907;-81
2021/06/28 03:48:26;;;;;;;11.25;10.13;;;;;;;13.43;71.43;99022.44;2305678;77;20911;-81
2021/06/28 03:51:27;;;;;;;16.87;10.50;;;;;;;13.58;71.48;99022.48;2306305;77;20932;-80
2021/06/28 03:54:28;;;;;;;11.38;10.13;;;;;;;13.73;71.56;99027.31;2305830;77;20936;-80
2021/06/28 03:57:31;;;;;;;51.58;16.75;;;;;;;13.88;71.48;99029.56;2306619;77;20947;-82
2021/06/28 04:00:33;;;;;;;11.43;10.30;;;;;;;14.08;71.89;99030.90;2306217;77;20951;-81
2021/06/28 04:03:36;;;;;;;12.40;9.95;;;;;;;14.46;71.78;99026.98;2306442;77;20872;-81
2021/06/28 04:06:36;;;;;;;13.03;11.55;;;;;;;14.85;71.34;99027.84;2307281;77;20999;-82
2021/06/28 04:09:37;;;;;;;11.15;10.00;;;;;;;15.16;71.02;99024.67;2306847;77;21035;-82
2021/06/28 04:12:38;;;;;;;13.28;9.78;;;;;;;15.42;70.87;99020.61;2306791;77;20972;-81
2021/06/28 04:15:39;;;;;;;10.82;9.73;;;;;;;15.76;70.46;99013.03;2306794;77;20984;-83
2021/06/28 04:18:43;;;;;;;18.10;10.10;;;;;;;16.11;70.17;99011.47;2306851;77;20912;-81
2021/06/28 04:21:44;;;;;;;14.33;11.67;;;;;;;16.58;69.84;99017.24;2306918;77;20980;-82
2021/06/28 04:24:45;;;;;;;13.22;10.58;;;;;;;17.02;69.52;99017.69;2306261;77;21319;-82
2021/06/28 04:27:46;;;;;;;12.90;11.20;;;;;;;17.23;68.94;99019.20;2303930;77;20948;-82
2021/06/28 04:30:47;;;;;;;11.35;10.20;;;;;;;17.47;69.03;99022.88;2285541;78;21001;-82
2021/06/28 04:33:49;;;;;;;11.68;10.48;;;;;;;17.56;68.67;99020.56;2285325;78;20938;-82
2021/06/28 04:36:51;;;;;;;13.08;9.33;;;;;;;17.73;68.94;99019.92;2285135;78;21319;-82
2021/06/28 04:39:52;;;;;;;11.30;10.03;;;;;;;17.87;68.81;99032.92;2284768;78;21005;-80
2021/06/28 04:42:53;;;;;;;15.30;11.05;;;;;;;17.99;68.56;99027.91;2284550;78;21314;-80
2021/06/28 04:45:54;;;;;;;17.90;11.48;;;;;;;18.23;68.78;99028.88;2284646;78;20918;-81
2021/06/28 04:48:55;;;;;;;26.90;15.45;;;;;;;18.59;68.72;99027.84;2285281;78;20945;-81
2021/06/28 04:51:56;;;;;;;84.15;17.27;;;;;;;18.89;68.36;99040.98;2285379;78;21328;-82
2021/06/28 04:54:58;;;;;;;27.13;13.40;;;;;;;19.28;67.41;99028.34;2285530;78;20906;-82
2021/06/28 04:57:58;;;;;;;18.45;12.40;;;;;;;19.56;67.54;99030.45;2285101;78;20914;-80
2021/06/28 05:01:00;;;;;;;13.72;12.35;;;;;;;19.84;67.29;99026.73;2284755;78;21008;-81
2021/06/28 05:04:00;;;;;;;12.33;11.12;;;;;;;20.18;65.07;99030.38;2285274;78;20921;-83
2021/06/28 05:07:02;;;;;;;14.45;12.75;;;;;;;20.53;63.56;99026.02;2285879;78;21392;-83
2021/06/28 05:10:03;;;;;;;10.70;9.60;;;;;;;20.80;63.10;99031.93;2285742;78;21349;-81
2021/06/28 05:13:04;;;;;;;13.20;10.65;;;;;;;21.03;61.86;99035.33;2285290;77;20965;-81
2021/06/28 05:16:05;;;;;;;10.43;9.50;;;;;;;21.17;61.10;99029.64;2285559;78;21320;-81
2021/06/28 05:19:06;;;;;;;10.58;9.28;;;;;;;21.15;60.73;99032.33;2286059;77;20914;-81
2021/06/28 05:22:07;;;;;;;10.98;9.60;;;;;;;21.25;59.85;99032.98;2286255;78;20898;-81
2021/06/28 05:25:08;;;;;;;11.55;10.38;;;;;;;21.52;59.56;99040.16;2286620;77;21005;-81
2021/06/28 05:28:09;;;;;;;12.58;9.48;;;;;;;21.68;59.26;99034.41;2286663;77;20918;-80
2021/06/28 05:31:10;;;;;;;9.90;8.90;;;;;;;21.92;58.23;99034.53;2293082;78;21008;-81
2021/06/28 05:34:11;;;;;;;9.73;8.75;;;;;;;22.02;57.39;99039.56;2292838;78;20976;-82
2021/06/28 05:37:12;;;;;;;9.60;8.40;;;;;;;22.15;57.25;99044.48;2292832;78;20972;-79
2021/06/28 05:40:14;;;;;;;15.48;8.20;;;;;;;22.29;56.50;99045.83;2292182;78;20984;-83
2021/06/28 05:46:17;;;;;;;11.40;8.50;;;;;;;22.89;54.79;99049.62;2268185;78;21324;-82
2021/06/28 05:49:18;;;;;;;8.65;6.65;;;;;;;23.20;54.21;99056.05;2292185;78;20928;-80
2021/06/28 05:52:20;;;;;;;6.97;6.00;;;;;;;23.38;53.09;99059.38;2292396;78;20980;-82
2021/06/28 05:55:21;;;;;;;26.35;8.55;;;;;;;23.47;52.65;99056.87;2292461;78;21247;-81
2021/06/28 05:58:24;;;;;;;23.55;14.38;;;;;;;23.64;52.34;99054.95;2292292;78;20951;-82
2021/06/28 06:01:24;;;;;;;45.52;9.83;;;;;;;23.88;52.48;99049.14;2292332;78;21007;-76
2021/06/28 06:04:25;;;;;;;8.13;6.50;;;;;;;24.09;51.11;99049.16;2292200;78;20904;-82
2021/06/28 06:07:26;;;;;;;6.05;5.55;;;;;;;24.24;50.26;99053.48;2292159;78;20992;-80
2021/06/28 06:10:27;;;;;;;11.45;6.08;;;;;;;24.14;49.50;99053.85;2296215;77;20976;-80
2021/06/28 06:13:28;;;;;;;6.97;6.28;;;;;;;23.91;50.32;99057.89;2299840;77;21005;-82
2021/06/28 06:16:29;;;;;;;7.28;6.60;;;;;;;23.93;51.36;99060.50;2299541;77;20906;-82
2021/06/28 06:19:30;;;;;;;7.87;6.90;;;;;;;23.79;51.65;99060.56;2297288;77;20913;-80
2021/06/28 06:22:31;;;;;;;8.28;7.25;;;;;;;23.69;51.90;99063.64;2291934;78;20956;-81
2021/06/28 06:25:33;;;;;;;7.37;6.78;;;;;;;23.76;52.73;99069.14;2292261;78;20951;-78
2021/06/28 06:28:34;;;;;;;9.38;6.75;;;;;;;23.85;52.19;99067.92;2292070;78;21340;-81
2021/06/28 06:31:35;;;;;;;8.90;5.80;;;;;;;23.94;51.96;99067.56;2292536;78;21011;-81
2021/06/28 06:34:35;;;;;;;9.50;7.80;;;;;;;24.04;50.89;99066.28;2292260;78;21295;-81
2021/06/28 06:37:36;;;;;;;4.45;4.08;;;;;;;24.43;50.43;99067.88;2292262;78;20877;-81
2021/06/28 06:40:37;;;;;;;3.80;3.50;;;;;;;24.85;48.00;99070.56;2292909;78;20952;-81
2021/06/28 06:43:38;;;;;;;7.05;3.80;;;;;;;25.15;45.82;99066.23;2293632;78;20908;-82
2021/06/28 06:46:39;;;;;;;3.92;3.50;;;;;;;25.33;46.22;99067.62;2292627;78;20951;-82
2021/06/28 06:49:42;;;;;;;4.35;4.00;;;;;;;25.82;44.77;99076.11;2292047;78;21027;-81
2021/06/28 06:52:43;;;;;;;4.25;3.90;;;;;;;26.08;44.38;99075.39;2292650;78;20984;-83
2021/06/28 06:55:45;;;;;;;6.70;4.40;;;;;;;26.28;43.82;99077.98;2292717;78;20936;-82
2021/06/28 06:58:46;;;;;;;4.35;3.95;;;;;;;26.45;42.90;99079.39;2292446;78;20975;-82
2021/06/28 07:01:47;;;;;;;3.55;3.25;;;;;;;26.63;42.48;99083.84;2292135;78;21012;-82
2021/06/28 07:04:48;;;;;;;3.37;2.75;;;;;;;26.90;40.23;99079.41;2292349;78;20900;-82
2021/06/28 07:07:49;;;;;;;4.45;3.08;;;;;;;27.13;38.41;99084.48;2292485;78;20912;-83
2021/06/28 07:10:51;;;;;;;153.60;14.47;;;;;;;27.29;37.91;99082.74;2269027;78;20959;-81
2021/06/28 07:13:52;;;;;;;5.33;3.27;;;;;;;27.53;37.81;99085.07;2292129;78;21391;-82
2021/06/28 07:16:54;;;;;;;3.10;2.62;;;;;;;27.48;36.44;99075.93;2292369;78;20948;-82
2021/06/28 07:19:55;;;;;;;3.72;2.42;;;;;;;27.46;35.83;99079.17;2292057;78;20980;-80
2021/06/28 07:22:55;;;;;;;5.55;2.75;;;;;;;27.56;35.81;99083.09;2291915;78;20865;-81
2021/06/28 07:25:56;;;;;;;3.72;3.30;;;;;;;27.60;35.86;99082.45;2291658;78;21276;-80
2021/06/28 07:28:57;;;;;;;4.08;3.00;;;;;;;27.75;36.02;99078.14;2282915;77;20951;-82
2021/06/28 07:31:58;;;;;;;5.35;3.27;;;;;;;27.86;35.21;99084.66;2249797;79;20944;-80
2021/06/28 07:34:59;;;;;;;4.70;2.83;;;;;;;27.97;35.02;99089.42;2250124;79;20920;-81
2021/06/28 07:38:00;;;;;;;3.17;2.70;;;;;;;28.06;34.79;99081.34;2250273;79;21355;-79
2021/06/28 07:44:06;;;;;;;3.02;2.83;;;;;;;28.06;34.50;99086.70;2228153;79;20968;-80
2021/06/28 07:47:06;;;;;;;3.20;2.90;;;;;;;28.05;32.75;99088.53;2249873;78;20980;-81
2021/06/28 07:50:07;;;;;;;2.80;2.50;;;;;;;28.08;34.13;99084.80;2250658;79;21583;-80
2021/06/28 07:53:08;;;;;;;2.40;2.20;;;;;;;28.17;33.37;99089.66;2249767;79;21283;-81
2021/06/28 07:56:17;;;;;;;17.80;13.00;;;;;;;28.24;33.52;99087.05;2250317;79;20889;-81
2021/06/28 07:59:18;;;;;;;3.75;3.17;;;;;;;28.55;33.36;99084.34;2250206;79;20917;-82
2021/06/28 08:02:19;;;;;;;22.25;4.78;;;;;;;28.54;32.56;99082.62;2249984;79;21256;-82
2021/06/28 08:05:21;;;;;;;4.17;3.67;;;;;;;28.62;32.56;99082.20;2250461;79;21015;-79
2021/06/28 08:08:22;;;;;;;2.63;2.43;;;;;;;28.81;32.52;99082.00;2250379;79;20947;-80
2021/06/28 08:11:24;;;;;;;2.35;2.25;;;;;;;28.72;31.61;99078.51;2249818;79;20992;-81
2021/06/28 08:14:25;;;;;;;11.20;2.90;;;;;;;28.28;32.58;99079.22;2250187;79;21024;-80
2021/06/28 08:17:26;;;;;;;3.02;2.72;;;;;;;28.61;32.46;99076.45;2249650;79;21007;-81
2021/06/28 08:20:27;;;;;;;3.10;2.80;;;;;;;28.71;31.76;99086.18;2249378;79;20916;-80
2021/06/28 08:23:28;;;;;;;3.95;2.77;;;;;;;28.67;32.08;99084.63;2249318;79;20969;-81
2021/06/28 08:26:29;;;;;;;2.77;2.58;;;;;;;28.55;31.69;99083.01;2249742;79;21295;-80
2021/06/28 08:29:31;;;;;;;3.10;2.80;;;;;;;28.58;32.19;99080.63;2236800;77;20930;-80
2021/06/28 08:32:32;;;;;;;2.80;2.58;;;;;;;28.71;32.35;99075.44;2281848;78;20958;-81
2021/06/28 08:35:33;;;;;;;3.17;2.90;;;;;;;28.85;29.88;99081.76;2282028;77;21033;-79
2021/06/28 08:38:34;;;;;;;62.75;7.60;;;;;;;28.65;30.81;99079.82;2281786;78;20898;-83
2021/06/28 08:41:36;;;;;;;3.05;2.75;;;;;;;28.77;30.78;99081.31;2282399;77;21009;-80
2021/06/28 08:44:37;;;;;;;3.02;2.83;;;;;;;28.47;30.14;99091.11;2282055;77;20966;-83
2021/06/28 08:47:38;;;;;;;2.95;2.75;;;;;;;28.09;31.01;99090.56;2281701;77;21021;-81
2021/06/28 08:50:39;;;;;;;3.00;2.80;;;;;;;28.12;31.99;99086.37;2281659;78;21293;-82
2021/06/28 08:53:40;;;;;;;3.25;3.05;;;;;;;28.43;31.52;99087.73;2281944;77;20970;-81
2021/06/28 08:56:41;;;;;;;3.20;2.95;;;;;;;28.68;31.27;99095.28;2282073;77;20961;-80
2021/06/28 08:59:42;;;;;;;16.20;4.42;;;;;;;28.76;29.35;99090.33;2281836;77;21104;-82
2021/06/28 09:02:43;;;;;;;4.62;2.90;;;;;;;28.53;30.44;99094.31;2281676;78;20922;-79
2021/06/28 09:05:44;;;;;;;14.07;3.50;;;;;;;28.67;30.57;99092.20;2282024;78;20902;-80
2021/06/28 09:08:47;;;;;;;3.50;3.20;;;;;;;28.84;30.08;99091.25;2281687;78;20945;-81
2021/06/28 09:11:48;;;;;;;3.40;3.10;;;;;;;28.65;30.04;99097.28;2282633;78;20962;-81
2021/06/28 09:14:54;;;;;;;3.55;3.25;;;;;;;28.30;30.66;99093.89;2283050;78;20926;-82
2021/06/28 09:17:54;;;;;;;113.03;75.80;;;;;;;28.47;31.39;99078.55;2282209;78;20969;-80
2021/06/28 09:20:55;;;;;;;3.25;2.98;;;;;;;28.74;31.40;99076.59;2282403;78;21424;-83
2021/06/28 09:23:56;;;;;;;24.60;4.87;;;;;;;28.44;31.19;99088.13;2282352;78;21339;-81
2021/06/28 09:26:57;;;;;;;4.67;3.25;;;;;;;28.04;31.90;99103.37;2282331;78;20922;-80
2021/06/28 09:29:59;;;;;;;4.35;3.22;;;;;;;28.06;32.16;99092.08;2282103;77;21065;-82
2021/06/28 09:33:00;;;;;;;3.58;3.27;;;;;;;27.86;31.25;99090.48;2282521;78;21017;-79
2021/06/28 09:36:02;;;;;;;3.65;3.35;;;;;;;27.73;31.43;99090.26;2281790;77;21396;-81
2021/06/28 09:39:02;;;;;;;5.67;3.52;;;;;;;27.82;30.83;99081.75;2282619;77;21366;-80
2021/06/28 09:42:03;;;;;;;10.60;3.90;;;;;;;28.20;31.68;99080.09;2282337;77;20958;-82
2021/06/28 09:45:08;;;;;;;4.40;3.33;;;;;;;28.89;31.01;99078.41;2261543;78;20897;-82
2021/06/28 09:48:08;;;;;;;4.70;3.80;;;;;;;29.23;30.46;99080.42;2282748;77;20983;-81
2021/06/28 09:51:09;;;;;;;3.52;3.25;;;;;;;29.38;30.42;99074.11;2282080;77;20988;-81
2021/06/28 09:54:15;;;;;;;3.25;3.00;;;;;;;29.36;29.71;99077.38;2281923;78;20930;-81
2021/06/28 09:57:13;;;;;;;19.25;14.18;;;;;;;29.29;29.75;99076.02;2282431;77;20922;-82
2021/06/28 10:00:14;;;;;;;4.62;3.20;;;;;;;29.11;29.48;99070.80;2282710;78;20918;-82
2021/06/28 10:03:15;;;;;;;3.37;3.08;;;;;;;28.98;30.12;99077.00;2282347;78;20910;-81
2021/06/28 10:09:21;;;;;;;5.37;3.77;;;;;;;28.40;30.99;99078.52;2262163;78;21377;-82
2021/06/28 10:12:23;;;;;;;12.93;10.35;;;;;;;27.89;31.37;99080.94;2282023;77;21054;-81
2021/06/28 10:15:24;;;;;;;3.22;2.92;;;;;;;27.89;32.25;99075.09;2282251;78;20957;-81
2021/06/28 10:18:25;;;;;;;4.30;3.90;;;;;;;28.30;32.22;99066.58;2282445;77;20942;-82
2021/06/28 10:21:26;;;;;;;3.67;3.22;;;;;;;28.43;31.20;99068.95;2282264;78;20899;-82
2021/06/28 10:24:27;;;;;;;12.78;3.67;;;;;;;28.16;31.33;99071.83;2282329;77;21374;-82
2021/06/28 10:27:28;;;;;;;77.27;62.10;;;;;;;28.10;30.86;99071.69;2282179;78;20956;-81
2021/06/28 10:30:29;;;;;;;5.00;3.08;;;;;;;28.38;31.01;99071.03;2267407;78;21360;-81
2021/06/28 10:33:30;;;;;;;3.00;2.80;;;;;;;28.85;30.21;99062.09;2249931;79;20979;-82
2021/06/28 10:36:31;;;;;;;7.37;3.62;;;;;;;29.36;30.61;99055.86;2250185;79;21291;-82
2021/06/28 10:39:32;;;;;;;15.28;3.72;;;;;;;29.85;29.42;99056.89;2250333;79;20929;-83
2021/06/28 10:42:33;;;;;;;3.85;3.33;;;;;;;29.70;29.61;99058.73;2250066;79;20968;-81
2021/06/28 10:45:34;;;;;;;3.40;3.10;;;;;;;29.53;30.98;99057.09;2249945;79;21351;-81
2021/06/28 10:48:35;;;;;;;3.22;2.92;;;;;;;29.25;29.41;99048.45;2249987;79;21024;-81
2021/06/28 10:51:36;;;;;;;3.37;3.08;;;;;;;29.11;30.82;99045.74;2249875;79;21000;-82
2021/06/28 10:54:37;;;;;;;14.75;4.58;;;;;;;29.26;29.43;99049.32;2250145;79;20952;-78
2021/06/28 10:57:38;;;;;;;8.75;4.97;;;;;;;28.92;31.00;99043.30;2250204;79;20961;-78
2021/06/28 11:00:39;;;;;;;3.42;3.12;;;;;;;29.09;30.81;99042.28;2249407;79;20936;-79
2021/06/28 11:03:41;;;;;;;220.27;23.30;;;;;;;28.98;30.40;99048.78;2249618;79;21654;-79
2021/06/28 11:06:43;;;;;;;4.75;3.20;;;;;;;28.51;30.19;99049.23;2250501;79;21419;-83
2021/06/28 11:09:46;;;;;;;4.10;3.35;;;;;;;28.41;31.08;99045.83;2251304;79;21264;-81
2021/06/28 11:12:48;;;;;;;3.72;3.12;;;;;;;28.70;31.66;99041.47;2250135;79;20998;-81
2021/06/28 11:15:49;;;;;;;3.35;2.60;;;;;;;28.88;30.54;99040.41;2250207;79;20940;-82
2021/06/28 11:18:50;;;;;;;3.05;2.85;;;;;;;28.81;30.20;99026.92;2249875;79;20969;-83
2021/06/28 11:21:51;;;;;;;3.60;3.30;;;;;;;28.57;30.44;99022.97;2249901;79;21056;-82
2021/06/28 11:24:52;;;;;;;4.28;3.05;;;;;;;28.20;31.29;99029.09;2250272;79;20916;-84
2021/06/28 11:27:53;;;;;;;3.90;2.87;;;;;;;28.41;31.81;99035.95;2251267;79;20877;-83
2021/06/28 11:30:55;;;;;;;2.80;2.60;;;;;;;28.71;31.02;99032.45;2271606;77;20917;-84
2021/06/28 11:33:58;;;;;;;5.42;2.92;;;;;;;28.19;30.99;99035.42;2292285;78;20953;-81
2021/06/28 11:36:58;;;;;;;5.10;3.42;;;;;;;28.34;32.03;99043.97;2292453;78;21001;-82
2021/06/28 11:39:59;;;;;;;4.10;2.70;;;;;;;28.20;31.46;99034.47;2292868;78;21287;-81
2021/06/28 11:43:03;;;;;;;5.10;2.98;;;;;;;28.17;32.35;99034.64;2292268;78;20935;-82
2021/06/28 11:46:04;;;;;;;2.77;2.47;;;;;;;28.54;31.71;99034.28;2292566;78;21375;-81
2021/06/28 11:49:05;;;;;;;2.50;2.33;;;;;;;28.74;30.02;99030.45;2292627;78;21236;-82
2021/06/28 11:52:05;;;;;;;5.20;2.62;;;;;;;28.78;29.90;99025.77;2291933;78;20943;-79
2021/06/28 11:55:07;;;;;;;10.15;2.37;;;;;;;28.83;30.20;99021.88;2291397;78;20943;-79
2021/06/28 11:58:08;;;;;;;18.00;3.40;;;;;;;29.05;29.41;99021.45;2291461;78;20960;-79
2021/06/28 12:01:09;;;;;;;12.23;3.67;;;;;;;29.30;29.96;99017.26;2291356;78;20916;-78
2021/06/28 12:04:10;;;;;;;3.25;2.37;;;;;;;29.71;28.86;99009.34;2291424;78;20960;-79
2021/06/28 12:07:11;;;;;;;5.05;2.20;;;;;;;29.87;28.70;99010.09;2291721;78;20881;-79
2021/06/28 12:10:12;;;;;;;2.33;2.12;;;;;;;29.90;28.92;99015.76;2292008;78;20948;-80
2021/06/28 12:13:13;;;;;;;5.35;2.08;;;;;;;30.05;28.29;99014.31;2291639;78;21376;-80
2021/06/28 12:16:14;;;;;;;2.25;2.05;;;;;;;30.07;27.72;99010.17;2292026;78;20923;-81
2021/06/28 12:19:15;;;;;;;7.62;2.80;;;;;;;30.07;27.60;99012.39;2291686;78;21308;-80
2021/06/28 12:22:16;;;;;;;2.12;2.00;;;;;;;30.08;27.97;99002.00;2291809;78;20920;-79
2021/06/28 12:25:17;;;;;;;4.28;3.08;;;;;;;29.99;27.71;99016.51;2292229;78;20995;-79
2021/06/28 12:28:18;;;;;;;4.87;2.65;;;;;;;30.01;27.78;99008.75;2292254;78;20904;-80
2021/06/28 12:31:19;;;;;;;2.87;2.60;;;;;;;29.88;27.92;99014.51;2291470;78;20944;-79
2021/06/28 12:34:20;;;;;;;5.83;2.72;;;;;;;29.84;28.03;99010.77;2292499;78;20904;-80
2021/06/28 12:37:21;;;;;;;2.65;2.45;;;;;;;29.87;27.82;99007.40;2293065;78;20995;-79
2021/06/28 12:40:24;;;;;;;3.85;2.17;;;;;;;29.79;26.82;99002.52;2292330;78;20947;-79
2021/06/28 12:43:26;;;;;;;2.42;2.20;;;;;;;29.70;26.55;99003.58;2291635;78;21335;-78
2021/06/28 12:46:29;;;;;;;2.42;2.22;;;;;;;29.71;27.38;99000.80;2293615;78;21172;-81
2021/06/28 12:49:29;;;;;;;2.42;2.22;;;;;;;29.90;28.44;98999.61;2293898;77;20977;-80
2021/06/28 12:52:31;;;;;;;5.55;2.47;;;;;;;30.06;26.85;98995.85;2294045;78;20919;-82
2021/06/28 12:55:34;;;;;;;3.42;2.50;;;;;;;30.22;26.88;98980.91;2293656;78;21284;-82
2021/06/28 12:58:35;;;;;;;3.87;2.50;;;;;;;30.12;27.90;98989.20;2293461;78;20995;-81
2021/06/28 13:01:36;;;;;;;3.55;2.65;;;;;;;30.53;27.23;98988.31;2292328;78;20908;-81
2021/06/28 13:04:37;;;;;;;2.67;2.50;;;;;;;30.41;26.76;98980.57;2293352;78;20881;-80
2021/06/28 13:07:38;;;;;;;4.40;2.52;;;;;;;30.51;27.31;98974.08;2293586;78;20911;-82
2021/06/28 13:10:39;;;;;;;4.10;2.27;;;;;;;30.41;26.75;98983.27;2293541;78;20952;-81
2021/06/28 13:13:41;;;;;;;2.58;2.37;;;;;;;30.24;27.19;98978.97;2293435;78;20932;-81
2021/06/28 13:19:48;;;;;;;2.75;2.55;;;;;;;30.43;27.55;98977.29;2270097;78;20997;-81
2021/06/28 13:22:49;;;;;;;3.15;2.62;;;;;;;30.35;26.77;98983.19;2293058;78;20900;-81
2021/06/28 13:25:49;;;;;;;4.22;2.95;;;;;;;30.02;28.00;98986.25;2292590;78;20908;-79
2021/06/28 13:28:50;;;;;;;5.35;2.70;;;;;;;29.40;28.61;98983.46;2293135;78;20980;-79
2021/06/28 13:31:56;;;;;;;4.60;2.60;;;;;;;28.90;29.40;98986.11;2286901;77;20935;-82
2021/06/28 13:34:56;;;;;;;3.42;3.10;;;;;;;28.77;30.15;98982.40;2283362;78;20915;-81
2021/06/28 13:37:57;;;;;;;3.17;2.85;;;;;;;28.73;29.59;98983.54;2283126;77;20902;-81
2021/06/28 13:44:00;;;;;;;5.80;3.05;;;;;;;29.23;29.22;98979.62;2263000;78;20949;-82
2021/06/28 13:47:01;;;;;;;3.22;2.95;;;;;;;29.25;29.49;98976.36;2283619;77;20982;-82
2021/06/28 13:50:02;;;;;;;4.12;3.08;;;;;;;29.18;29.98;98978.08;2283167;78;20977;-81
2021/06/28 13:53:03;;;;;;;4.35;3.10;;;;;;;28.97;30.37;98979.87;2283669;78;21001;-79
2021/06/28 13:56:07;;;;;;;5.92;3.02;;;;;;;28.82;30.54;98974.45;2284129;77;20913;-81
2021/06/28 13:59:06;;;;;;;3.55;3.25;;;;;;;28.64;31.05;98968.84;2283695;78;20945;-80
2021/06/28 14:02:07;;;;;;;3.52;3.02;;;;;;;28.56;31.21;98975.11;2283849;78;21340;-81
2021/06/28 14:05:08;;;;;;;5.12;3.05;;;;;;;28.39;31.26;98970.74;2283192;77;20922;-81
2021/06/28 14:08:09;;;;;;;3.37;3.08;;;;;;;28.30;32.10;98975.31;2283024;78;21608;-82
2021/06/28 14:11:10;;;;;;;3.47;3.00;;;;;;;28.29;32.81;98973.58;2282266;77;20934;-81
2021/06/28 14:14:11;;;;;;;3.70;3.40;;;;;;;28.50;30.96;98971.45;2283680;78;20998;-80
2021/06/28 14:17:12;;;;;;;3.20;2.90;;;;;;;28.50;31.03;98970.11;2283881;77;20970;-82
2021/06/28 14:20:14;;;;;;;3.20;3.00;;;;;;;28.42;31.39;98970.56;2283569;77;20985;-81